LiveATC.Net - Listen to live air traffic control over the Internet! Contact LiveATC.net for advertising information


ICAO: YMHB  IATA: HBA   Airport: Hobart International Airport
City: Cambridge   State/Province: Tasmania
Country: Australia   Continent: Oceania
YMHB METAR Weather: YMHB 250000Z 16015KT 9999 FEW020 SCT250 15/08 Q1015
YMHB Flight Activity (FlightAware)
YMHB Gnd/Twr/Centre
Feed Status: DOWN
Last heard on: 2014-10-25 00:38:03 (0 days 0 hours 4 minutes ago)
YMHB Gnd/Twr/Centre Audio Archives
FacilityFrequency
Hobart Ground121.700
Hobart Tower118.100
Melbourne Centre125.550


NOTICE

Unauthorized use prohibited. See LiveATC.net Terms of Service


Find LiveATC Audio Streams


Airport/ARTCC Code

Frequency
(e.g., 124.400, 128.75)
Site-wide search

Browse LiveATC Feeds
LiveATC Coverage Map
Top 50 LiveATC Feeds
Bad Weather Areas

LiveATC FAQ
Offer a LiveATC Feed
Contact LiveATC.net
Press Inquiries

LiveATC on iPhone
LiveATC on Android

LiveATC Mobile
(Mobile browser)

ATC Audio Archives
Interesting Recordings

LiveATC Forums


Home Page
About LiveATC.net
Make a Donation
LiveATC Bookstore

Terms of Use
Privacy Policy

ATC/Radar Sites
U.S. ARTCC Freqs
Canadian Air Freqs

AIRMETs/SIGMETs

FAA Airport Status
Nat'l Airspace Status
Arrival Demand Charts


Server Software By:
Icecast.org
Liquidsoap

Please make a donation to help us keep growing!